CheckWX is a tool to help pilots better visualize weather data.  It is not intended as a substitute for an official pre-flight weather briefing.

21:57:41 UTC

DAUL METAR
Laghouat Airport
Laghouat, Algeria
Current

58 mins ago

DAUL 212100Z 00000KT CAVOK 12/04 Q1028
Observed
Feb-21 @ 21:00 UTC
Visibility
10,000+ meters
Flight Rules
VFR
Cloud Levels
  • Clear skies
Temperature
12°C / 54°F
Dewpoint
C / 39°F
Humidity
58%
Altimeter
30.35" Hg
Pressure
1027.92 hPa
Previous

2 hours ago

DAUL 212000Z 00000KT CAVOK 13/03 Q1027
Observed
Feb-21 @ 20:00 UTC
Visibility
10,000+ meters
Flight Rules
VFR
Cloud Levels
  • Clear skies
Temperature
13°C / 55°F
Dewpoint
C / 37°F
Humidity
51%
Altimeter
30.32" Hg
Pressure
1026.92 hPa
Previous

3 hours ago

DAUL 211900Z 00000KT CAVOK 15/02 Q1027
Observed
Feb-21 @ 19:00 UTC
Visibility
10,000+ meters
Flight Rules
VFR
Cloud Levels
  • Clear skies
Temperature
15°C / 59°F
Dewpoint
C / 36°F
Humidity
42%
Altimeter
30.32" Hg
Pressure
1026.92 hPa